Hauptseite
METAR-TAF:

METAR-TAF

Flughäfen :

Flughafen Kasane

Kasane, Botsuana

Breite: 17-49S, Länge: 025-09E, Höhe: 968 m

Beobachtung

Neuester Wetterbericht von vor 58 Minuten, um 11:00 UTC
Wind 6 kt aus unterschiedlichen Richtungen
Temperatur 30°C
Luftfeuchtigkeit 38%
Luftdruck 1018 hPa
Sichtweite 10 km oder mehr
Durchbrochene Bewölkung in der Höhe von 3000 ft

METAR: FBKE 291100Z VRB06KT 9999 BKN030 30/14 Q1018

Zeit: 13:58 (11:58 UTC)

Prognose

Neuester Wetterbericht von vor 2 Stunden und 58 Minuten, um 09:00 UTC
Gültige Prognose vom 29 um 12 UTC bis 29 um 21 UTC
Wind 6 kt aus Südost
Sichtweite 10 km oder mehr
keine Wolken unter 1500 m und keine Kumulonimbus oder Gewitterwolken
Übergehend zu
vom 29 um 12 UTC bis 29 um 21 UTC
Leicht bewölkt in der Höhe von 3500 ft, Kumulonimbus.

TAF: FBKE 290900Z 2912/2921 13006KT CAVOK BECMG 2912/2921 FEW035CB

Wetterbeobachtungen und Prognosen von mehr als 4000 Flughäfen (METAR und TAF Bericht).

Die verfügbaren Stationen werden durch gelbe und rote Markierungen auf der Karte dargestellt.

Führen Sie die Maus auf sie, um den Namen der Station zu sehen.

Darauf klicken, um die Beobachtung von Wetterbeobachtungen und Prognosen zu sehen.

Um die Karte zu ändern : klicken Sie auf den grünen Tasten mit einem schwarzen Kreuz Zum Vergrößern, auf den grünen Button mit einem Gedankenstrich zu verkleinern, oder auf die grünen Pfeile für benachbarte Karten.


METAR-TAF: